sensor_id;sensor_type;location;lat;lon;timestamp;P1;durP1;ratioP1;P2;durP2;ratioP2
50569;SDS011;36525;49.398;7.614;2023-09-19T00:00:56;7.47;;;3.00;;
50569;SDS011;36525;49.398;7.614;2023-09-19T00:03:24;8.02;;;2.63;;
50569;SDS011;36525;49.398;7.614;2023-09-19T00:05:52;6.72;;;2.80;;
50569;SDS011;36525;49.398;7.614;2023-09-19T00:08:19;10.10;;;3.25;;
50569;SDS011;36525;49.398;7.614;2023-09-19T00:10:50;10.68;;;3.10;;
50569;SDS011;36525;49.398;7.614;2023-09-19T00:13:17;5.55;;;2.30;;
50569;SDS011;36525;49.398;7.614;2023-09-19T00:15:47;7.10;;;3.45;;
50569;SDS011;36525;49.398;7.614;2023-09-19T00:18:18;8.48;;;3.00;;
50569;SDS011;36525;49.398;7.614;2023-09-19T00:21:00;7.13;;;2.75;;
50569;SDS011;36525;49.398;7.614;2023-09-19T00:23:30;8.55;;;3.25;;
50569;SDS011;36525;49.398;7.614;2023-09-19T00:26:00;12.02;;;3.10;;
50569;SDS011;36525;49.398;7.614;2023-09-19T00:28:27;11.88;;;3.67;;
50569;SDS011;36525;49.398;7.614;2023-09-19T00:30:56;13.25;;;4.30;;
50569;SDS011;36525;49.398;7.614;2023-09-19T00:33:24;19.80;;;3.95;;
50569;SDS011;36525;49.398;7.614;2023-09-19T00:35:52;7.25;;;3.30;;
50569;SDS011;36525;49.398;7.614;2023-09-19T00:38:21;8.32;;;3.45;;
50569;SDS011;36525;49.398;7.614;2023-09-19T00:40:53;11.15;;;4.30;;
50569;SDS011;36525;49.398;7.614;2023-09-19T00:45:55;9.40;;;3.10;;
50569;SDS011;36525;49.398;7.614;2023-09-19T00:48:24;8.85;;;3.50;;
50569;SDS011;36525;49.398;7.614;2023-09-19T00:50:55;5.10;;;2.80;;
50569;SDS011;36525;49.398;7.614;2023-09-19T00:53:29;11.35;;;4.10;;
50569;SDS011;36525;49.398;7.614;2023-09-19T00:55:57;6.75;;;3.35;;
50569;SDS011;36525;49.398;7.614;2023-09-19T00:58:24;7.80;;;2.53;;
50569;SDS011;36525;49.398;7.614;2023-09-19T01:00:52;8.38;;;3.10;;
50569;SDS011;36525;49.398;7.614;2023-09-19T01:03:19;11.02;;;3.28;;
50569;SDS011;36525;49.398;7.614;2023-09-19T01:05:48;7.53;;;2.90;;
50569;SDS011;36525;49.398;7.614;2023-09-19T01:08:15;5.72;;;3.08;;
50569;SDS011;36525;49.398;7.614;2023-09-19T01:10:52;4.07;;;2.20;;
50569;SDS011;36525;49.398;7.614;2023-09-19T01:19:29;9.48;;;2.85;;
50569;SDS011;36525;49.398;7.614;2023-09-19T01:22:37;5.50;;;2.40;;
50569;SDS011;36525;49.398;7.614;2023-09-19T01:28:12;4.25;;;2.08;;
50569;SDS011;36525;49.398;7.614;2023-09-19T01:30:56;7.22;;;2.35;;
50569;SDS011;36525;49.398;7.614;2023-09-19T01:33:25;5.72;;;2.67;;
50569;SDS011;36525;49.398;7.614;2023-09-19T01:35:52;7.60;;;4.00;;
50569;SDS011;36525;49.398;7.614;2023-09-19T01:38:20;6.70;;;3.88;;
50569;SDS011;36525;49.398;7.614;2023-09-19T01:40:49;8.00;;;4.03;;
50569;SDS011;36525;49.398;7.614;2023-09-19T01:43:32;7.10;;;3.40;;
50569;SDS011;36525;49.398;7.614;2023-09-19T01:46:09;10.15;;;4.30;;
50569;SDS011;36525;49.398;7.614;2023-09-19T01:49:06;8.70;;;3.53;;
50569;SDS011;36525;49.398;7.614;2023-09-19T01:54:26;4.55;;;2.65;;
50569;SDS011;36525;49.398;7.614;2023-09-19T01:57:51;7.15;;;4.03;;
50569;SDS011;36525;49.398;7.614;2023-09-19T02:00:06;10.63;;;4.20;;
50569;SDS011;36525;49.398;7.614;2023-09-19T02:02:38;7.05;;;3.72;;
50569;SDS011;36525;49.398;7.614;2023-09-19T02:05:11;8.23;;;3.65;;
50569;SDS011;36525;49.398;7.614;2023-09-19T02:07:38;7.40;;;4.05;;
50569;SDS011;36525;49.398;7.614;2023-09-19T02:10:07;12.50;;;4.88;;
50569;SDS011;36525;49.398;7.614;2023-09-19T02:12:36;6.13;;;3.50;;
50569;SDS011;36525;49.398;7.614;2023-09-19T02:15:04;9.18;;;4.85;;
50569;SDS011;36525;49.398;7.614;2023-09-19T02:17:33;10.88;;;5.70;;
50569;SDS011;36525;49.398;7.614;2023-09-19T02:20:01;9.05;;;4.75;;
50569;SDS011;36525;49.398;7.614;2023-09-19T02:22:28;10.60;;;5.03;;
50569;SDS011;36525;49.398;7.614;2023-09-19T02:24:55;10.95;;;5.65;;
50569;SDS011;36525;49.398;7.614;2023-09-19T02:27:27;10.40;;;5.18;;
50569;SDS011;36525;49.398;7.614;2023-09-19T02:29:54;10.70;;;5.80;;
50569;SDS011;36525;49.398;7.614;2023-09-19T02:32:23;10.82;;;4.25;;
50569;SDS011;36525;49.398;7.614;2023-09-19T02:34:50;7.88;;;4.20;;
50569;SDS011;36525;49.398;7.614;2023-09-19T02:37:18;13.00;;;3.90;;
50569;SDS011;36525;49.398;7.614;2023-09-19T02:39:46;11.43;;;3.83;;
50569;SDS011;36525;49.398;7.614;2023-09-19T02:42:13;8.25;;;3.75;;
50569;SDS011;36525;49.398;7.614;2023-09-19T02:44:40;7.88;;;3.85;;
50569;SDS011;36525;49.398;7.614;2023-09-19T02:47:07;8.23;;;4.13;;
50569;SDS011;36525;49.398;7.614;2023-09-19T02:49:36;9.75;;;4.22;;
50569;SDS011;36525;49.398;7.614;2023-09-19T02:52:03;13.27;;;3.50;;
50569;SDS011;36525;49.398;7.614;2023-09-19T02:54:31;14.38;;;5.63;;
50569;SDS011;36525;49.398;7.614;2023-09-19T02:56:58;7.90;;;4.40;;
50569;SDS011;36525;49.398;7.614;2023-09-19T02:59:25;11.32;;;3.70;;
50569;SDS011;36525;49.398;7.614;2023-09-19T03:01:54;8.90;;;3.63;;
50569;SDS011;36525;49.398;7.614;2023-09-19T03:04:22;12.65;;;4.38;;
50569;SDS011;36525;49.398;7.614;2023-09-19T03:06:49;8.20;;;3.33;;
50569;SDS011;36525;49.398;7.614;2023-09-19T03:09:17;12.43;;;3.35;;
50569;SDS011;36525;49.398;7.614;2023-09-19T03:11:45;10.63;;;3.30;;
50569;SDS011;36525;49.398;7.614;2023-09-19T03:14:14;7.15;;;3.13;;
50569;SDS011;36525;49.398;7.614;2023-09-19T03:16:42;10.90;;;3.20;;
50569;SDS011;36525;49.398;7.614;2023-09-19T03:19:11;7.38;;;2.42;;
50569;SDS011;36525;49.398;7.614;2023-09-19T03:21:38;7.85;;;2.40;;
50569;SDS011;36525;49.398;7.614;2023-09-19T03:24:05;11.10;;;2.75;;
50569;SDS011;36525;49.398;7.614;2023-09-19T03:26:33;7.75;;;2.35;;
50569;SDS011;36525;49.398;7.614;2023-09-19T03:29:03;6.43;;;2.13;;
50569;SDS011;36525;49.398;7.614;2023-09-19T03:31:34;10.85;;;2.38;;
50569;SDS011;36525;49.398;7.614;2023-09-19T03:34:03;10.85;;;2.92;;
50569;SDS011;36525;49.398;7.614;2023-09-19T03:36:31;6.47;;;2.53;;
50569;SDS011;36525;49.398;7.614;2023-09-19T03:39:01;14.13;;;3.10;;
50569;SDS011;36525;49.398;7.614;2023-09-19T03:41:31;7.05;;;2.55;;
50569;SDS011;36525;49.398;7.614;2023-09-19T03:43:59;5.78;;;2.53;;
50569;SDS011;36525;49.398;7.614;2023-09-19T03:46:26;8.27;;;2.80;;
50569;SDS011;36525;49.398;7.614;2023-09-19T03:48:54;6.15;;;2.60;;
50569;SDS011;36525;49.398;7.614;2023-09-19T03:51:21;7.95;;;2.40;;
50569;SDS011;36525;49.398;7.614;2023-09-19T03:53:49;11.10;;;3.88;;
50569;SDS011;36525;49.398;7.614;2023-09-19T03:56:16;12.38;;;3.10;;
50569;SDS011;36525;49.398;7.614;2023-09-19T03:58:43;9.35;;;2.70;;
50569;SDS011;36525;49.398;7.614;2023-09-19T04:01:11;11.52;;;2.78;;
50569;SDS011;36525;49.398;7.614;2023-09-19T04:03:40;10.13;;;2.42;;
50569;SDS011;36525;49.398;7.614;2023-09-19T04:06:14;9.35;;;2.50;;
50569;SDS011;36525;49.398;7.614;2023-09-19T04:08:42;14.75;;;2.78;;
50569;SDS011;36525;49.398;7.614;2023-09-19T04:11:10;11.48;;;2.72;;
50569;SDS011;36525;49.398;7.614;2023-09-19T04:13:38;10.70;;;2.00;;
50569;SDS011;36525;49.398;7.614;2023-09-19T04:16:06;7.53;;;1.73;;
50569;SDS011;36525;49.398;7.614;2023-09-19T04:18:34;13.43;;;2.47;;
50569;SDS011;36525;49.398;7.614;2023-09-19T04:21:04;10.88;;;2.20;;
50569;SDS011;36525;49.398;7.614;2023-09-19T04:23:32;6.07;;;1.85;;
50569;SDS011;36525;49.398;7.614;2023-09-19T04:25:59;10.68;;;2.30;;
50569;SDS011;36525;49.398;7.614;2023-09-19T04:28:26;8.32;;;2.05;;
50569;SDS011;36525;49.398;7.614;2023-09-19T04:30:57;7.00;;;2.03;;
50569;SDS011;36525;49.398;7.614;2023-09-19T04:33:25;9.98;;;1.75;;
50569;SDS011;36525;49.398;7.614;2023-09-19T04:35:55;5.07;;;1.25;;
50569;SDS011;36525;49.398;7.614;2023-09-19T04:38:33;9.68;;;1.80;;
50569;SDS011;36525;49.398;7.614;2023-09-19T04:41:00;7.85;;;1.70;;
50569;SDS011;36525;49.398;7.614;2023-09-19T04:43:28;6.85;;;1.88;;
50569;SDS011;36525;49.398;7.614;2023-09-19T04:45:57;7.05;;;1.65;;
50569;SDS011;36525;49.398;7.614;2023-09-19T04:48:26;10.18;;;1.58;;
50569;SDS011;36525;49.398;7.614;2023-09-19T04:50:55;10.25;;;2.00;;
50569;SDS011;36525;49.398;7.614;2023-09-19T04:53:23;7.35;;;1.50;;
50569;SDS011;36525;49.398;7.614;2023-09-19T04:55:53;9.65;;;1.67;;
50569;SDS011;36525;49.398;7.614;2023-09-19T04:58:22;5.65;;;1.15;;
50569;SDS011;36525;49.398;7.614;2023-09-19T05:00:49;10.00;;;2.17;;
50569;SDS011;36525;49.398;7.614;2023-09-19T05:03:18;5.53;;;1.83;;
50569;SDS011;36525;49.398;7.614;2023-09-19T05:05:46;4.85;;;1.45;;
50569;SDS011;36525;49.398;7.614;2023-09-19T05:08:14;5.93;;;1.50;;
50569;SDS011;36525;49.398;7.614;2023-09-19T05:10:41;6.80;;;1.60;;
50569;SDS011;36525;49.398;7.614;2023-09-19T05:13:08;12.52;;;1.70;;
50569;SDS011;36525;49.398;7.614;2023-09-19T05:15:35;11.32;;;1.90;;
50569;SDS011;36525;49.398;7.614;2023-09-19T05:18:03;11.13;;;1.90;;
50569;SDS011;36525;49.398;7.614;2023-09-19T05:20:32;7.10;;;2.03;;
50569;SDS011;36525;49.398;7.614;2023-09-19T05:23:02;6.25;;;1.85;;
50569;SDS011;36525;49.398;7.614;2023-09-19T05:25:32;7.50;;;1.92;;
50569;SDS011;36525;49.398;7.614;2023-09-19T05:28:06;11.77;;;1.80;;
50569;SDS011;36525;49.398;7.614;2023-09-19T05:30:35;6.60;;;1.70;;
50569;SDS011;36525;49.398;7.614;2023-09-19T05:33:05;9.88;;;2.00;;
50569;SDS011;36525;49.398;7.614;2023-09-19T05:35:32;8.68;;;1.98;;
50569;SDS011;36525;49.398;7.614;2023-09-19T05:37:59;9.00;;;1.50;;
50569;SDS011;36525;49.398;7.614;2023-09-19T05:40:27;9.23;;;1.80;;
50569;SDS011;36525;49.398;7.614;2023-09-19T05:42:54;5.32;;;1.50;;
50569;SDS011;36525;49.398;7.614;2023-09-19T05:45:21;8.60;;;1.73;;
50569;SDS011;36525;49.398;7.614;2023-09-19T05:47:49;10.00;;;1.80;;
50569;SDS011;36525;49.398;7.614;2023-09-19T05:50:17;8.10;;;2.30;;
50569;SDS011;36525;49.398;7.614;2023-09-19T05:52:54;12.50;;;1.60;;
50569;SDS011;36525;49.398;7.614;2023-09-19T05:55:22;9.57;;;1.45;;
50569;SDS011;36525;49.398;7.614;2023-09-19T05:57:52;9.82;;;1.70;;
50569;SDS011;36525;49.398;7.614;2023-09-19T06:00:20;8.10;;;2.00;;
50569;SDS011;36525;49.398;7.614;2023-09-19T06:02:58;6.60;;;1.65;;
50569;SDS011;36525;49.398;7.614;2023-09-19T06:05:26;6.68;;;1.20;;
50569;SDS011;36525;49.398;7.614;2023-09-19T06:07:56;12.73;;;1.77;;
50569;SDS011;36525;49.398;7.614;2023-09-19T06:10:29;11.48;;;2.15;;
50569;SDS011;36525;49.398;7.614;2023-09-19T06:12:57;12.55;;;2.50;;
50569;SDS011;36525;49.398;7.614;2023-09-19T06:15:25;7.80;;;1.42;;
50569;SDS011;36525;49.398;7.614;2023-09-19T06:17:53;9.93;;;1.73;;
50569;SDS011;36525;49.398;7.614;2023-09-19T06:20:22;5.75;;;1.10;;
50569;SDS011;36525;49.398;7.614;2023-09-19T06:22:51;9.10;;;1.60;;
50569;SDS011;36525;49.398;7.614;2023-09-19T06:25:20;6.30;;;1.50;;
50569;SDS011;36525;49.398;7.614;2023-09-19T06:27:50;15.88;;;1.85;;
50569;SDS011;36525;49.398;7.614;2023-09-19T06:30:22;7.95;;;1.65;;
50569;SDS011;36525;49.398;7.614;2023-09-19T06:32:55;7.18;;;1.50;;
50569;SDS011;36525;49.398;7.614;2023-09-19T06:35:25;11.23;;;1.52;;
50569;SDS011;36525;49.398;7.614;2023-09-19T06:37:53;8.23;;;1.45;;
50569;SDS011;36525;49.398;7.614;2023-09-19T06:40:23;5.30;;;0.88;;
50569;SDS011;36525;49.398;7.614;2023-09-19T06:42:51;7.72;;;1.20;;
50569;SDS011;36525;49.398;7.614;2023-09-19T06:45:22;6.75;;;1.73;;
50569;SDS011;36525;49.398;7.614;2023-09-19T06:47:54;7.32;;;1.30;;
50569;SDS011;36525;49.398;7.614;2023-09-19T06:50:25;11.32;;;1.98;;
50569;SDS011;36525;49.398;7.614;2023-09-19T06:52:54;6.93;;;1.23;;
50569;SDS011;36525;49.398;7.614;2023-09-19T06:55:25;7.38;;;1.40;;
50569;SDS011;36525;49.398;7.614;2023-09-19T06:57:55;9.20;;;1.52;;
50569;SDS011;36525;49.398;7.614;2023-09-19T07:00:22;11.50;;;1.85;;
50569;SDS011;36525;49.398;7.614;2023-09-19T07:02:59;11.25;;;1.42;;
50569;SDS011;36525;49.398;7.614;2023-09-19T07:05:31;6.43;;;1.23;;
50569;SDS011;36525;49.398;7.614;2023-09-19T07:07:59;9.75;;;1.27;;
50569;SDS011;36525;49.398;7.614;2023-09-19T07:10:29;9.75;;;1.60;;
50569;SDS011;36525;49.398;7.614;2023-09-19T07:13:01;9.45;;;1.30;;
50569;SDS011;36525;49.398;7.614;2023-09-19T07:15:35;8.23;;;1.60;;
50569;SDS011;36525;49.398;7.614;2023-09-19T07:18:13;6.80;;;1.33;;
50569;SDS011;36525;49.398;7.614;2023-09-19T07:20:43;10.70;;;1.63;;
50569;SDS011;36525;49.398;7.614;2023-09-19T07:23:18;7.47;;;1.45;;
50569;SDS011;36525;49.398;7.614;2023-09-19T07:25:47;12.60;;;2.08;;
50569;SDS011;36525;49.398;7.614;2023-09-19T07:28:15;14.02;;;1.95;;
50569;SDS011;36525;49.398;7.614;2023-09-19T07:30:43;9.20;;;1.45;;
50569;SDS011;36525;49.398;7.614;2023-09-19T07:33:10;8.80;;;1.90;;
50569;SDS011;36525;49.398;7.614;2023-09-19T07:35:38;9.95;;;1.83;;
50569;SDS011;36525;49.398;7.614;2023-09-19T07:38:08;8.85;;;1.27;;
50569;SDS011;36525;49.398;7.614;2023-09-19T07:40:38;12.25;;;1.88;;
50569;SDS011;36525;49.398;7.614;2023-09-19T07:43:06;10.05;;;1.63;;
50569;SDS011;36525;49.398;7.614;2023-09-19T07:45:33;7.22;;;1.67;;
50569;SDS011;36525;49.398;7.614;2023-09-19T07:48:03;9.98;;;1.70;;
50569;SDS011;36525;49.398;7.614;2023-09-19T07:50:33;10.98;;;1.77;;
50569;SDS011;36525;49.398;7.614;2023-09-19T07:53:04;17.38;;;2.15;;
50569;SDS011;36525;49.398;7.614;2023-09-19T07:55:31;16.92;;;2.30;;
50569;SDS011;36525;49.398;7.614;2023-09-19T07:58:03;8.02;;;1.50;;
50569;SDS011;36525;49.398;7.614;2023-09-19T08:00:31;9.85;;;1.80;;
50569;SDS011;36525;49.398;7.614;2023-09-19T08:03:01;6.65;;;1.55;;
50569;SDS011;36525;49.398;7.614;2023-09-19T08:05:41;20.00;;;2.03;;
50569;SDS011;36525;49.398;7.614;2023-09-19T08:08:10;7.03;;;1.55;;
50569;SDS011;36525;49.398;7.614;2023-09-19T08:10:40;13.32;;;1.65;;
50569;SDS011;36525;49.398;7.614;2023-09-19T08:13:10;12.90;;;2.03;;
50569;SDS011;36525;49.398;7.614;2023-09-19T08:15:43;12.00;;;2.03;;
50569;SDS011;36525;49.398;7.614;2023-09-19T08:18:12;11.45;;;1.50;;
50569;SDS011;36525;49.398;7.614;2023-09-19T08:20:40;8.25;;;1.45;;
50569;SDS011;36525;49.398;7.614;2023-09-19T08:23:08;13.55;;;2.15;;
50569;SDS011;36525;49.398;7.614;2023-09-19T08:25:35;12.93;;;2.17;;
50569;SDS011;36525;49.398;7.614;2023-09-19T08:28:05;10.32;;;2.22;;
50569;SDS011;36525;49.398;7.614;2023-09-19T08:30:35;12.23;;;2.38;;
50569;SDS011;36525;49.398;7.614;2023-09-19T08:33:06;11.10;;;2.45;;
50569;SDS011;36525;49.398;7.614;2023-09-19T08:35:34;10.65;;;2.00;;
50569;SDS011;36525;49.398;7.614;2023-09-19T08:38:01;9.73;;;2.00;;
50569;SDS011;36525;49.398;7.614;2023-09-19T08:40:30;12.35;;;2.25;;
50569;SDS011;36525;49.398;7.614;2023-09-19T08:43:00;11.55;;;2.22;;
50569;SDS011;36525;49.398;7.614;2023-09-19T08:45:27;18.83;;;2.70;;
50569;SDS011;36525;49.398;7.614;2023-09-19T08:48:00;11.65;;;2.00;;
50569;SDS011;36525;49.398;7.614;2023-09-19T08:50:56;8.50;;;1.48;;
50569;SDS011;36525;49.398;7.614;2023-09-19T08:53:58;5.90;;;1.52;;
50569;SDS011;36525;49.398;7.614;2023-09-19T08:56:33;13.32;;;2.47;;
50569;SDS011;36525;49.398;7.614;2023-09-19T08:59:03;9.88;;;1.92;;
50569;SDS011;36525;49.398;7.614;2023-09-19T09:01:30;9.93;;;1.90;;
50569;SDS011;36525;49.398;7.614;2023-09-19T09:03:59;8.07;;;1.52;;
50569;SDS011;36525;49.398;7.614;2023-09-19T09:06:30;5.57;;;1.70;;
50569;SDS011;36525;49.398;7.614;2023-09-19T09:11:48;7.40;;;1.60;;
50569;SDS011;36525;49.398;7.614;2023-09-19T09:14:22;16.42;;;2.65;;
50569;SDS011;36525;49.398;7.614;2023-09-19T09:16:51;6.72;;;1.50;;
50569;SDS011;36525;49.398;7.614;2023-09-19T09:19:18;10.25;;;1.92;;
50569;SDS011;36525;49.398;7.614;2023-09-19T09:21:51;8.88;;;2.42;;
50569;SDS011;36525;49.398;7.614;2023-09-19T09:24:28;11.20;;;2.22;;
50569;SDS011;36525;49.398;7.614;2023-09-19T09:26:57;6.68;;;1.80;;
50569;SDS011;36525;49.398;7.614;2023-09-19T09:29:43;9.70;;;2.28;;
50569;SDS011;36525;49.398;7.614;2023-09-19T09:35:01;5.15;;;1.35;;
50569;SDS011;36525;49.398;7.614;2023-09-19T09:37:36;9.48;;;1.90;;
50569;SDS011;36525;49.398;7.614;2023-09-19T09:40:05;8.25;;;2.03;;
50569;SDS011;36525;49.398;7.614;2023-09-19T09:42:42;9.48;;;1.58;;
50569;SDS011;36525;49.398;7.614;2023-09-19T09:47:55;10.20;;;1.83;;
50569;SDS011;36525;49.398;7.614;2023-09-19T09:50:26;9.63;;;1.67;;
50569;SDS011;36525;49.398;7.614;2023-09-19T09:53:19;10.57;;;2.00;;
50569;SDS011;36525;49.398;7.614;2023-09-19T09:56:02;7.15;;;1.60;;
50569;SDS011;36525;49.398;7.614;2023-09-19T10:01:22;7.82;;;1.50;;
50569;SDS011;36525;49.398;7.614;2023-09-19T10:03:59;9.43;;;2.22;;
50569;SDS011;36525;49.398;7.614;2023-09-19T10:06:39;4.30;;;1.20;;
50569;SDS011;36525;49.398;7.614;2023-09-19T10:09:13;6.90;;;1.40;;
50569;SDS011;36525;49.398;7.614;2023-09-19T10:11:44;6.20;;;1.60;;
50569;SDS011;36525;49.398;7.614;2023-09-19T10:14:17;7.57;;;1.65;;
50569;SDS011;36525;49.398;7.614;2023-09-19T10:16:50;8.80;;;2.05;;
50569;SDS011;36525;49.398;7.614;2023-09-19T10:19:28;8.20;;;1.67;;
50569;SDS011;36525;49.398;7.614;2023-09-19T10:22:01;9.65;;;1.58;;
50569;SDS011;36525;49.398;7.614;2023-09-19T10:24:32;9.63;;;1.60;;
50569;SDS011;36525;49.398;7.614;2023-09-19T10:27:14;8.45;;;1.85;;
50569;SDS011;36525;49.398;7.614;2023-09-19T10:29:42;7.43;;;1.70;;
50569;SDS011;36525;49.398;7.614;2023-09-19T10:32:14;11.27;;;1.60;;
50569;SDS011;36525;49.398;7.614;2023-09-19T10:34:46;6.25;;;1.30;;
50569;SDS011;36525;49.398;7.614;2023-09-19T10:37:14;6.55;;;1.40;;
50569;SDS011;36525;49.398;7.614;2023-09-19T10:39:46;9.20;;;1.67;;
50569;SDS011;36525;49.398;7.614;2023-09-19T10:42:16;8.18;;;1.45;;
50569;SDS011;36525;49.398;7.614;2023-09-19T10:44:47;8.50;;;1.38;;
50569;SDS011;36525;49.398;7.614;2023-09-19T10:47:21;7.68;;;2.08;;
50569;SDS011;36525;49.398;7.614;2023-09-19T10:49:51;6.13;;;1.50;;
50569;SDS011;36525;49.398;7.614;2023-09-19T10:52:23;9.57;;;2.10;;
50569;SDS011;36525;49.398;7.614;2023-09-19T10:54:55;7.78;;;1.83;;
50569;SDS011;36525;49.398;7.614;2023-09-19T10:57:24;5.22;;;1.10;;
50569;SDS011;36525;49.398;7.614;2023-09-19T11:05:41;6.78;;;1.42;;
50569;SDS011;36525;49.398;7.614;2023-09-19T11:08:09;6.93;;;1.50;;
50569;SDS011;36525;49.398;7.614;2023-09-19T11:10:48;9.25;;;1.35;;
50569;SDS011;36525;49.398;7.614;2023-09-19T11:13:24;5.82;;;1.65;;
50569;SDS011;36525;49.398;7.614;2023-09-19T11:27:09;8.23;;;1.08;;
50569;SDS011;36525;49.398;7.614;2023-09-19T11:29:43;5.72;;;1.52;;
50569;SDS011;36525;49.398;7.614;2023-09-19T11:32:11;7.63;;;1.55;;
50569;SDS011;36525;49.398;7.614;2023-09-19T11:34:40;5.57;;;1.00;;
50569;SDS011;36525;49.398;7.614;2023-09-19T11:42:46;5.50;;;0.88;;
50569;SDS011;36525;49.398;7.614;2023-09-19T11:48:18;4.57;;;0.85;;
50569;SDS011;36525;49.398;7.614;2023-09-19T11:50:46;7.07;;;1.17;;
50569;SDS011;36525;49.398;7.614;2023-09-19T11:53:14;4.65;;;1.10;;
50569;SDS011;36525;49.398;7.614;2023-09-19T11:55:42;7.25;;;1.38;;
50569;SDS011;36525;49.398;7.614;2023-09-19T11:58:10;4.28;;;1.05;;
50569;SDS011;36525;49.398;7.614;2023-09-19T12:00:40;4.70;;;1.17;;
50569;SDS011;36525;49.398;7.614;2023-09-19T12:03:11;5.05;;;1.95;;
50569;SDS011;36525;49.398;7.614;2023-09-19T12:05:45;6.57;;;1.67;;
50569;SDS011;36525;49.398;7.614;2023-09-19T12:08:14;6.32;;;1.17;;
50569;SDS011;36525;49.398;7.614;2023-09-19T12:10:50;3.13;;;0.90;;
50569;SDS011;36525;49.398;7.614;2023-09-19T12:13:21;4.57;;;1.10;;
50569;SDS011;36525;49.398;7.614;2023-09-19T12:15:49;3.65;;;1.02;;
50569;SDS011;36525;49.398;7.614;2023-09-19T12:18:28;5.78;;;1.10;;
50569;SDS011;36525;49.398;7.614;2023-09-19T12:20:56;4.55;;;1.40;;
50569;SDS011;36525;49.398;7.614;2023-09-19T12:23:24;7.25;;;1.20;;
50569;SDS011;36525;49.398;7.614;2023-09-19T12:25:55;6.10;;;1.40;;
50569;SDS011;36525;49.398;7.614;2023-09-19T12:28:27;4.65;;;1.00;;
50569;SDS011;36525;49.398;7.614;2023-09-19T12:31:06;2.67;;;1.00;;
50569;SDS011;36525;49.398;7.614;2023-09-19T12:33:34;4.43;;;1.13;;
50569;SDS011;36525;49.398;7.614;2023-09-19T12:36:24;4.07;;;1.10;;
50569;SDS011;36525;49.398;7.614;2023-09-19T12:38:56;4.72;;;1.13;;
50569;SDS011;36525;49.398;7.614;2023-09-19T12:41:27;5.07;;;0.90;;
50569;SDS011;36525;49.398;7.614;2023-09-19T12:43:55;2.70;;;1.02;;
50569;SDS011;36525;49.398;7.614;2023-09-19T12:46:24;5.15;;;1.00;;
50569;SDS011;36525;49.398;7.614;2023-09-19T12:51:48;2.92;;;1.00;;
50569;SDS011;36525;49.398;7.614;2023-09-19T12:54:21;5.72;;;1.08;;
50569;SDS011;36525;49.398;7.614;2023-09-19T12:56:48;4.28;;;1.20;;
50569;SDS011;36525;49.398;7.614;2023-09-19T12:59:16;4.75;;;1.08;;
50569;SDS011;36525;49.398;7.614;2023-09-19T13:01:44;4.88;;;1.00;;
50569;SDS011;36525;49.398;7.614;2023-09-19T13:04:17;3.75;;;0.95;;
50569;SDS011;36525;49.398;7.614;2023-09-19T13:06:50;4.80;;;1.20;;
50569;SDS011;36525;49.398;7.614;2023-09-19T13:09:19;4.85;;;1.00;;
50569;SDS011;36525;49.398;7.614;2023-09-19T13:11:50;3.55;;;0.90;;
50569;SDS011;36525;49.398;7.614;2023-09-19T13:14:24;5.05;;;1.02;;
50569;SDS011;36525;49.398;7.614;2023-09-19T13:17:07;3.88;;;1.00;;
50569;SDS011;36525;49.398;7.614;2023-09-19T13:19:49;5.00;;;1.00;;
50569;SDS011;36525;49.398;7.614;2023-09-19T13:25:18;3.58;;;0.95;;
50569;SDS011;36525;49.398;7.614;2023-09-19T13:30:18;3.65;;;0.90;;
50569;SDS011;36525;49.398;7.614;2023-09-19T13:32:46;3.92;;;0.90;;
50569;SDS011;36525;49.398;7.614;2023-09-19T13:35:14;5.38;;;0.80;;
50569;SDS011;36525;49.398;7.614;2023-09-19T13:37:42;3.55;;;1.15;;
50569;SDS011;36525;49.398;7.614;2023-09-19T13:40:18;6.80;;;1.40;;
50569;SDS011;36525;49.398;7.614;2023-09-19T13:42:45;4.20;;;0.73;;
50569;SDS011;36525;49.398;7.614;2023-09-19T13:45:12;5.07;;;1.15;;
50569;SDS011;36525;49.398;7.614;2023-09-19T13:47:42;2.40;;;0.70;;
50569;SDS011;36525;49.398;7.614;2023-09-19T13:50:09;4.00;;;0.93;;
50569;SDS011;36525;49.398;7.614;2023-09-19T13:52:36;2.47;;;0.63;;
50569;SDS011;36525;49.398;7.614;2023-09-19T13:55:05;6.60;;;0.80;;
50569;SDS011;36525;49.398;7.614;2023-09-19T13:57:34;3.72;;;0.68;;
50569;SDS011;36525;49.398;7.614;2023-09-19T14:00:01;2.45;;;0.75;;
50569;SDS011;36525;49.398;7.614;2023-09-19T14:02:31;4.85;;;0.90;;
50569;SDS011;36525;49.398;7.614;2023-09-19T14:04:59;4.50;;;0.90;;
50569;SDS011;36525;49.398;7.614;2023-09-19T14:07:28;2.88;;;0.70;;
50569;SDS011;36525;49.398;7.614;2023-09-19T14:09:55;4.57;;;0.90;;
50569;SDS011;36525;49.398;7.614;2023-09-19T14:12:22;4.32;;;0.90;;
50569;SDS011;36525;49.398;7.614;2023-09-19T14:14:49;4.40;;;1.15;;
50569;SDS011;36525;49.398;7.614;2023-09-19T14:17:17;2.92;;;0.80;;
50569;SDS011;36525;49.398;7.614;2023-09-19T14:19:45;5.45;;;0.90;;
50569;SDS011;36525;49.398;7.614;2023-09-19T14:22:12;2.75;;;0.65;;
50569;SDS011;36525;49.398;7.614;2023-09-19T14:24:40;3.55;;;0.80;;
50569;SDS011;36525;49.398;7.614;2023-09-19T14:27:08;2.35;;;0.68;;
50569;SDS011;36525;49.398;7.614;2023-09-19T14:29:36;5.35;;;0.90;;
50569;SDS011;36525;49.398;7.614;2023-09-19T14:32:03;2.40;;;0.80;;
50569;SDS011;36525;49.398;7.614;2023-09-19T14:34:31;3.22;;;0.80;;
50569;SDS011;36525;49.398;7.614;2023-09-19T14:36:59;4.72;;;1.23;;
50569;SDS011;36525;49.398;7.614;2023-09-19T14:39:26;4.18;;;0.80;;
50569;SDS011;36525;49.398;7.614;2023-09-19T14:41:53;3.95;;;0.77;;
50569;SDS011;36525;49.398;7.614;2023-09-19T14:44:20;5.35;;;0.65;;
50569;SDS011;36525;49.398;7.614;2023-09-19T14:46:48;2.95;;;0.75;;
50569;SDS011;36525;49.398;7.614;2023-09-19T14:49:16;1.83;;;0.60;;
50569;SDS011;36525;49.398;7.614;2023-09-19T14:51:43;4.95;;;0.68;;
50569;SDS011;36525;49.398;7.614;2023-09-19T14:54:11;3.50;;;0.70;;
50569;SDS011;36525;49.398;7.614;2023-09-19T14:56:38;2.35;;;0.65;;
50569;SDS011;36525;49.398;7.614;2023-09-19T14:59:10;3.55;;;0.65;;
50569;SDS011;36525;49.398;7.614;2023-09-19T15:01:37;5.60;;;0.95;;
50569;SDS011;36525;49.398;7.614;2023-09-19T15:04:05;1.65;;;0.60;;
50569;SDS011;36525;49.398;7.614;2023-09-19T15:06:33;1.92;;;0.60;;
50569;SDS011;36525;49.398;7.614;2023-09-19T15:09:00;3.83;;;0.75;;
50569;SDS011;36525;49.398;7.614;2023-09-19T15:11:27;1.80;;;0.60;;
50569;SDS011;36525;49.398;7.614;2023-09-19T15:14:12;4.50;;;0.80;;
50569;SDS011;36525;49.398;7.614;2023-09-19T15:16:39;2.08;;;0.70;;
50569;SDS011;36525;49.398;7.614;2023-09-19T15:19:09;2.22;;;0.60;;
50569;SDS011;36525;49.398;7.614;2023-09-19T15:21:36;4.00;;;1.00;;
50569;SDS011;36525;49.398;7.614;2023-09-19T15:24:03;4.53;;;0.90;;
50569;SDS011;36525;49.398;7.614;2023-09-19T15:26:31;1.45;;;0.70;;
50569;SDS011;36525;49.398;7.614;2023-09-19T15:28:58;6.65;;;0.63;;
50569;SDS011;36525;49.398;7.614;2023-09-19T15:31:26;7.32;;;0.70;;
50569;SDS011;36525;49.398;7.614;2023-09-19T15:33:53;5.38;;;0.70;;
50569;SDS011;36525;49.398;7.614;2023-09-19T15:36:20;2.15;;;0.70;;
50569;SDS011;36525;49.398;7.614;2023-09-19T15:39:00;1.75;;;0.70;;
50569;SDS011;36525;49.398;7.614;2023-09-19T15:41:38;2.65;;;0.70;;
50569;SDS011;36525;49.398;7.614;2023-09-19T15:44:13;4.90;;;0.60;;
50569;SDS011;36525;49.398;7.614;2023-09-19T15:46:42;2.38;;;0.70;;
50569;SDS011;36525;49.398;7.614;2023-09-19T15:49:11;5.20;;;1.17;;
50569;SDS011;36525;49.398;7.614;2023-09-19T15:51:39;2.10;;;0.70;;
50569;SDS011;36525;49.398;7.614;2023-09-19T15:54:08;4.05;;;0.70;;
50569;SDS011;36525;49.398;7.614;2023-09-19T15:56:43;2.70;;;0.70;;
50569;SDS011;36525;49.398;7.614;2023-09-19T15:59:11;1.65;;;0.50;;
50569;SDS011;36525;49.398;7.614;2023-09-19T16:01:39;5.05;;;0.63;;
50569;SDS011;36525;49.398;7.614;2023-09-19T16:04:07;2.97;;;0.70;;